Time;durP1;ratioP1;P1;durP2;ratioP2;P2;SDS_P1;SDS_P2;PMS_P1;PMS_P2;Temp;Humidity;BMP_temperature;BMP_pressure;BME280_temperature;BME280_humidity;BME280_pressure;Samples;Min_cycle;Max_cycle;Signal;HPM_P1;HPM_P2
2023/03/09 00:02:16;;;;;;;54.00;25.00;;;;;;;-128.00;-1.00;-1.00;97906;291;1004494;-34
2023/03/09 00:04:42;;;;;;;55.70;22.90;;;;;;;-128.00;-1.00;-1.00;97838;295;1004335;-33
2023/03/09 00:07:10;;;;;;;35.00;16.10;;;;;;;-128.00;-1.00;-1.00;97366;288;1004629;-33
2023/03/09 00:09:35;;;;;;;62.10;24.20;;;;;;;-128.00;-1.00;-1.00;97693;295;1005705;-35
2023/03/09 00:12:01;;;;;;;62.40;22.00;;;;;;;-128.00;-1.00;-1.00;97789;295;1005643;-34
2023/03/09 00:14:27;;;;;;;59.00;22.30;;;;;;;-128.00;-1.00;-1.00;97968;295;1005822;-31
2023/03/09 00:16:53;;;;;;;60.10;21.60;;;;;;;-128.00;-1.00;-1.00;97751;295;1005344;-29
2023/03/09 00:19:26;;;;;;;54.30;20.70;;;;;;;-128.00;-1.00;-1.00;97828;295;1005547;-36
2023/03/09 00:21:54;;;;;;;30.60;16.50;;;;;;;-128.00;-1.00;-1.00;97535;295;1005466;-33
2023/03/09 00:24:24;;;;;;;39.80;19.70;;;;;;;-128.00;-1.00;-1.00;97816;295;1005489;-33
2023/03/09 00:26:51;;;;;;;31.70;15.00;;;;;;;-128.00;-1.00;-1.00;97863;295;1005269;-31
2023/03/09 00:29:17;;;;;;;40.90;21.40;;;;;;;-128.00;-1.00;-1.00;97732;295;1004725;-31
2023/03/09 00:31:43;;;;;;;38.70;20.60;;;;;;;-128.00;-1.00;-1.00;97738;295;1004378;-37
2023/03/09 00:34:09;;;;;;;29.60;17.40;;;;;;;-128.00;-1.00;-1.00;97775;295;1004425;-32
2023/03/09 00:36:35;;;;;;;20.80;11.40;;;;;;;-128.00;-1.00;-1.00;97871;295;1005056;-32
2023/03/09 00:39:01;;;;;;;41.70;14.40;;;;;;;-128.00;-1.00;-1.00;97818;295;1005582;-33
2023/03/09 00:41:28;;;;;;;41.10;19.10;;;;;;;-128.00;-1.00;-1.00;97812;295;1005641;-33
2023/03/09 00:43:54;;;;;;;50.10;21.90;;;;;;;-128.00;-1.00;-1.00;97861;295;1005879;-30
2023/03/09 00:46:19;;;;;;;45.20;20.30;;;;;;;-128.00;-1.00;-1.00;97889;295;1005668;-32
2023/03/09 00:48:45;;;;;;;41.50;20.80;;;;;;;-128.00;-1.00;-1.00;97619;295;1004795;-31
2023/03/09 00:51:11;;;;;;;42.00;20.60;;;;;;;-128.00;-1.00;-1.00;97680;295;1004302;-34
2023/03/09 00:53:37;;;;;;;73.30;26.30;;;;;;;-128.00;-1.00;-1.00;97631;296;1005712;-30
2023/03/09 00:56:04;;;;;;;35.20;15.60;;;;;;;-128.00;-1.00;-1.00;97563;296;1004691;-31
2023/03/09 00:58:30;;;;;;;55.90;26.50;;;;;;;-128.00;-1.00;-1.00;97767;296;1004748;-33
2023/03/09 01:00:56;;;;;;;47.60;24.30;;;;;;;-128.00;-1.00;-1.00;97602;288;1005711;-33
2023/03/09 01:03:22;;;;;;;45.10;22.10;;;;;;;-128.00;-1.00;-1.00;97696;295;1004801;-33
2023/03/09 01:05:48;;;;;;;49.60;24.20;;;;;;;-128.00;-1.00;-1.00;97708;295;1005271;-35
2023/03/09 01:08:15;;;;;;;54.70;25.40;;;;;;;-128.00;-1.00;-1.00;97613;296;1005727;-34
2023/03/09 01:10:41;;;;;;;69.10;28.80;;;;;;;-128.00;-1.00;-1.00;97755;296;1005677;-35
2023/03/09 01:13:07;;;;;;;69.40;26.90;;;;;;;-128.00;-1.00;-1.00;97741;295;1005701;-34
2023/03/09 01:15:33;;;;;;;54.20;27.20;;;;;;;-128.00;-1.00;-1.00;97563;295;1005713;-33
2023/03/09 01:17:59;;;;;;;59.80;28.90;;;;;;;-128.00;-1.00;-1.00;97646;295;1005566;-35
2023/03/09 01:20:25;;;;;;;58.70;27.30;;;;;;;-128.00;-1.00;-1.00;97659;295;1006648;-30
2023/03/09 01:22:50;;;;;;;40.10;20.30;;;;;;;-128.00;-1.00;-1.00;97720;295;1005175;-33
2023/03/09 01:25:16;;;;;;;72.50;29.90;;;;;;;-128.00;-1.00;-1.00;97578;295;1004482;-33
2023/03/09 01:27:42;;;;;;;71.70;31.30;;;;;;;-128.00;-1.00;-1.00;97630;292;1005136;-33
2023/03/09 01:30:09;;;;;;;44.00;22.20;;;;;;;-128.00;-1.00;-1.00;97661;295;1005034;-31
2023/03/09 01:32:35;;;;;;;49.90;24.20;;;;;;;-128.00;-1.00;-1.00;97706;295;1004263;-32
2023/03/09 01:35:01;;;;;;;60.40;28.80;;;;;;;-128.00;-1.00;-1.00;97695;284;1004169;-35
2023/03/09 01:37:26;;;;;;;70.60;27.20;;;;;;;-128.00;-1.00;-1.00;97652;295;1004449;-31
2023/03/09 01:39:52;;;;;;;72.60;30.80;;;;;;;-128.00;-1.00;-1.00;97639;295;1005724;-38
2023/03/09 01:42:18;;;;;;;48.10;20.70;;;;;;;-128.00;-1.00;-1.00;97713;295;1004950;-31
2023/03/09 01:44:44;;;;;;;48.80;20.00;;;;;;;-128.00;-1.00;-1.00;97741;295;1004425;-31
2023/03/09 01:47:09;;;;;;;47.00;19.20;;;;;;;-128.00;-1.00;-1.00;97614;295;1004796;-31
2023/03/09 01:49:42;;;;;;;38.10;16.40;;;;;;;-128.00;-1.00;-1.00;97802;295;1006339;-31
2023/03/09 01:52:27;;;;;;;29.80;13.70;;;;;;;-128.00;-1.00;-1.00;97714;295;1005173;-32
2023/03/09 01:54:58;;;;;;;36.10;17.70;;;;;;;-128.00;-1.00;-1.00;97668;295;1005694;-34
2023/03/09 01:57:30;;;;;;;55.90;26.50;;;;;;;-128.00;-1.00;-1.00;97837;295;1004634;-31
2023/03/09 01:59:58;;;;;;;74.30;31.90;;;;;;;-128.00;-1.00;-1.00;97730;295;1005730;-34
2023/03/09 02:02:26;;;;;;;70.50;31.60;;;;;;;-128.00;-1.00;-1.00;97849;295;1004796;-33
2023/03/09 02:04:54;;;;;;;73.70;33.80;;;;;;;-128.00;-1.00;-1.00;97817;295;1004701;-33
2023/03/09 02:07:21;;;;;;;70.00;32.50;;;;;;;-128.00;-1.00;-1.00;97734;295;1005170;-31
2023/03/09 02:10:08;;;;;;;61.60;31.60;;;;;;;-128.00;-1.00;-1.00;97649;295;1003585;-34
2023/03/09 02:12:34;;;;;;;58.00;27.00;;;;;;;-128.00;-1.00;-1.00;97618;295;1005117;-31
2023/03/09 02:15:01;;;;;;;71.00;32.30;;;;;;;-128.00;-1.00;-1.00;97733;295;1004423;-32
2023/03/09 02:17:27;;;;;;;56.30;26.70;;;;;;;-128.00;-1.00;-1.00;97573;284;1005631;-31
2023/03/09 02:20:11;;;;;;;58.90;28.10;;;;;;;-128.00;-1.00;-1.00;97673;295;1004629;-33
2023/03/09 02:22:38;;;;;;;55.70;24.50;;;;;;;-128.00;-1.00;-1.00;97655;295;1004342;-35
2023/03/09 02:25:27;;;;;;;114.90;49.60;;;;;;;-128.00;-1.00;-1.00;97604;295;1004881;-31
2023/03/09 02:27:53;;;;;;;674.80;364.30;;;;;;;-128.00;-1.00;-1.00;97635;295;1004365;-36
2023/03/09 02:30:19;;;;;;;229.30;107.80;;;;;;;-128.00;-1.00;-1.00;97737;295;1005327;-32
2023/03/09 02:32:44;;;;;;;155.00;68.10;;;;;;;-128.00;-1.00;-1.00;97690;295;1005675;-34
2023/03/09 02:35:10;;;;;;;134.30;62.30;;;;;;;-128.00;-1.00;-1.00;97566;295;1005700;-30
2023/03/09 02:37:38;;;;;;;193.00;94.00;;;;;;;-128.00;-1.00;-1.00;97682;295;1005756;-40
2023/03/09 02:40:10;;;;;;;273.50;131.40;;;;;;;-128.00;-1.00;-1.00;97672;295;1005477;-35
2023/03/09 02:42:36;;;;;;;120.90;56.30;;;;;;;-128.00;-1.00;-1.00;97658;295;1005472;-31
2023/03/09 02:45:02;;;;;;;94.60;41.90;;;;;;;-128.00;-1.00;-1.00;97631;295;1005222;-34
2023/03/09 02:47:28;;;;;;;122.60;51.90;;;;;;;-128.00;-1.00;-1.00;97648;295;1004371;-33
2023/03/09 02:49:54;;;;;;;94.00;36.00;;;;;;;-128.00;-1.00;-1.00;97634;295;1005503;-35
2023/03/09 02:52:20;;;;;;;84.10;37.00;;;;;;;-128.00;-1.00;-1.00;97595;295;1004725;-32
2023/03/09 02:54:46;;;;;;;89.70;37.70;;;;;;;-128.00;-1.00;-1.00;97598;295;1005059;-31
2023/03/09 02:57:12;;;;;;;95.70;41.00;;;;;;;-128.00;-1.00;-1.00;97657;284;1005885;-34
2023/03/09 02:59:38;;;;;;;116.20;44.10;;;;;;;-128.00;-1.00;-1.00;97731;295;1005454;-33
2023/03/09 03:02:04;;;;;;;137.90;56.40;;;;;;;-128.00;-1.00;-1.00;97666;295;1005109;-31
2023/03/09 03:04:30;;;;;;;106.80;44.50;;;;;;;-128.00;-1.00;-1.00;97668;295;1005553;-31
2023/03/09 03:06:55;;;;;;;94.40;35.80;;;;;;;-128.00;-1.00;-1.00;97733;295;1005563;-34
2023/03/09 03:09:21;;;;;;;83.90;35.60;;;;;;;-128.00;-1.00;-1.00;97634;296;1005125;-31
2023/03/09 03:11:48;;;;;;;109.80;41.10;;;;;;;-128.00;-1.00;-1.00;97700;295;1006059;-35
2023/03/09 03:14:15;;;;;;;112.80;41.20;;;;;;;-128.00;-1.00;-1.00;97677;295;1004969;-34
2023/03/09 03:16:41;;;;;;;88.10;34.90;;;;;;;-128.00;-1.00;-1.00;97663;296;1005165;-34
2023/03/09 03:19:07;;;;;;;99.10;37.50;;;;;;;-128.00;-1.00;-1.00;97662;295;1004930;-32
2023/03/09 03:21:33;;;;;;;65.20;26.40;;;;;;;-128.00;-1.00;-1.00;97714;296;1005420;-31
2023/03/09 03:23:59;;;;;;;61.10;28.00;;;;;;;-128.00;-1.00;-1.00;97745;296;1005520;-32
2023/03/09 03:26:25;;;;;;;119.70;47.30;;;;;;;-128.00;-1.00;-1.00;97816;296;1003977;-32
2023/03/09 03:28:51;;;;;;;120.60;49.70;;;;;;;-128.00;-1.00;-1.00;97879;295;1003304;-32
2023/03/09 03:31:17;;;;;;;123.80;46.80;;;;;;;-128.00;-1.00;-1.00;97800;296;1004647;-37
2023/03/09 03:33:42;;;;;;;111.80;43.90;;;;;;;-128.00;-1.00;-1.00;97761;296;1004694;-36
2023/03/09 03:36:08;;;;;;;95.60;38.80;;;;;;;-128.00;-1.00;-1.00;96378;296;1004546;-32
2023/03/09 03:38:34;;;;;;;99.10;36.70;;;;;;;-128.00;-1.00;-1.00;97881;296;1004682;-34
2023/03/09 03:41:00;;;;;;;74.20;32.50;;;;;;;-128.00;-1.00;-1.00;97812;296;1003901;-32
2023/03/09 03:43:26;;;;;;;66.60;31.10;;;;;;;-128.00;-1.00;-1.00;97984;296;1004198;-31
2023/03/09 03:45:51;;;;;;;94.40;36.30;;;;;;;-128.00;-1.00;-1.00;97950;295;1003898;-32
2023/03/09 03:48:17;;;;;;;107.40;46.10;;;;;;;-128.00;-1.00;-1.00;96505;296;1003584;-34
2023/03/09 03:50:43;;;;;;;92.50;41.00;;;;;;;-128.00;-1.00;-1.00;97189;296;1004738;-32
2023/03/09 03:53:09;;;;;;;52.00;23.10;;;;;;;-128.00;-1.00;-1.00;97920;296;1004628;-32
2023/03/09 03:55:34;;;;;;;61.60;26.80;;;;;;;-128.00;-1.00;-1.00;97954;296;1003270;-33
2023/03/09 03:58:00;;;;;;;66.70;33.70;;;;;;;-128.00;-1.00;-1.00;97863;296;1003471;-32
2023/03/09 04:00:26;;;;;;;75.80;35.60;;;;;;;-128.00;-1.00;-1.00;97907;295;1003212;-32
2023/03/09 04:02:52;;;;;;;62.30;31.70;;;;;;;-128.00;-1.00;-1.00;98065;296;1003878;-35
2023/03/09 04:05:18;;;;;;;87.90;35.30;;;;;;;-128.00;-1.00;-1.00;97823;296;1003716;-35
2023/03/09 04:07:44;;;;;;;55.00;24.70;;;;;;;-128.00;-1.00;-1.00;98030;296;1003093;-34
2023/03/09 04:10:10;;;;;;;71.40;29.00;;;;;;;-128.00;-1.00;-1.00;97947;284;1003289;-32
2023/03/09 04:12:37;;;;;;;49.90;23.70;;;;;;;-128.00;-1.00;-1.00;97787;295;1004371;-31
2023/03/09 04:15:03;;;;;;;62.70;28.70;;;;;;;-128.00;-1.00;-1.00;97840;296;1004473;-39
2023/03/09 04:17:29;;;;;;;62.80;23.50;;;;;;;-128.00;-1.00;-1.00;97973;296;1002948;-33
2023/03/09 04:19:55;;;;;;;46.50;21.70;;;;;;;-128.00;-1.00;-1.00;97897;295;1003670;-31
2023/03/09 04:22:20;;;;;;;46.80;22.80;;;;;;;-128.00;-1.00;-1.00;97931;295;1003037;-35
2023/03/09 04:24:49;;;;;;;68.50;26.70;;;;;;;-128.00;-1.00;-1.00;97897;295;1005037;-32
2023/03/09 04:27:15;;;;;;;41.00;19.50;;;;;;;-128.00;-1.00;-1.00;97894;295;1004564;-32
2023/03/09 04:29:41;;;;;;;45.20;19.40;;;;;;;-128.00;-1.00;-1.00;97884;295;1004243;-34
2023/03/09 04:32:07;;;;;;;70.20;29.20;;;;;;;-128.00;-1.00;-1.00;98036;295;1004692;-32
2023/03/09 04:34:33;;;;;;;51.20;25.30;;;;;;;-128.00;-1.00;-1.00;97886;295;1002972;-38
2023/03/09 05:14:33;;;;;;;81.20;32.10;;;;;;;-102.05;19.20;19423.47;98344;296;1543907;-33
2023/03/09 05:17:00;;;;;;;76.30;32.80;;;;;;;-128.00;-1.00;-1.00;97606;297;1003873;-32
2023/03/09 05:19:26;;;;;;;73.40;28.80;;;;;;;-128.00;-1.00;-1.00;97877;297;1003530;-33
2023/03/09 05:21:52;;;;;;;81.80;36.60;;;;;;;-128.00;-1.00;-1.00;97923;295;1002843;-33
2023/03/09 05:24:17;;;;;;;71.70;30.20;;;;;;;-128.00;-1.00;-1.00;97861;295;1003623;-34
2023/03/09 05:26:43;;;;;;;79.90;31.40;;;;;;;-128.00;-1.00;-1.00;97853;295;1003501;-33
2023/03/09 05:29:09;;;;;;;58.30;27.90;;;;;;;-128.00;-1.00;-1.00;97762;295;1002989;-34
2023/03/09 05:31:35;;;;;;;75.30;33.40;;;;;;;-128.00;-1.00;-1.00;97869;295;1003930;-32
2023/03/09 05:34:01;;;;;;;78.00;28.90;;;;;;;-128.00;-1.00;-1.00;97967;295;1004285;-32
2023/03/09 05:36:27;;;;;;;48.10;23.90;;;;;;;-128.00;-1.00;-1.00;97894;295;1002982;-32
2023/03/09 05:38:53;;;;;;;68.90;28.70;;;;;;;-128.00;-1.00;-1.00;97860;295;1002833;-33
2023/03/09 05:41:19;;;;;;;54.90;24.60;;;;;;;-128.00;-1.00;-1.00;97881;295;1003476;-36
2023/03/09 05:43:45;;;;;;;52.90;25.00;;;;;;;-128.00;-1.00;-1.00;97951;295;1002633;-33
2023/03/09 05:46:12;;;;;;;52.10;24.20;;;;;;;-128.00;-1.00;-1.00;97954;295;1002955;-33
2023/03/09 05:48:39;;;;;;;67.40;31.20;;;;;;;-128.00;-1.00;-1.00;97749;298;1003073;-36
2023/03/09 05:51:05;;;;;;;65.70;31.60;;;;;;;-128.00;-1.00;-1.00;97977;296;1003025;-35
2023/03/09 05:53:32;;;;;;;63.10;30.80;;;;;;;-128.00;-1.00;-1.00;98073;295;1003208;-32
2023/03/09 05:55:57;;;;;;;78.30;34.40;;;;;;;-128.00;-1.00;-1.00;97956;295;1002911;-32
2023/03/09 05:58:23;;;;;;;77.30;32.50;;;;;;;-128.00;-1.00;-1.00;97834;295;1003813;-32
2023/03/09 06:00:50;;;;;;;77.30;34.00;;;;;;;-128.00;-1.00;-1.00;97871;295;1003111;-31
2023/03/09 06:03:16;;;;;;;73.70;30.60;;;;;;;-128.00;-1.00;-1.00;97771;284;1005180;-31
2023/03/09 06:05:42;;;;;;;63.20;28.40;;;;;;;-128.00;-1.00;-1.00;97919;295;1003915;-37
2023/03/09 06:08:07;;;;;;;71.50;31.70;;;;;;;-128.00;-1.00;-1.00;97927;284;1003424;-32
2023/03/09 06:10:33;;;;;;;76.70;33.80;;;;;;;-128.00;-1.00;-1.00;97890;284;1002908;-31
2023/03/09 06:12:59;;;;;;;101.30;38.70;;;;;;;-128.00;-1.00;-1.00;97900;295;1004747;-32
2023/03/09 06:15:25;;;;;;;86.80;36.60;;;;;;;-128.00;-1.00;-1.00;97840;295;1003080;-37
2023/03/09 06:17:50;;;;;;;65.20;27.60;;;;;;;-128.00;-1.00;-1.00;97860;295;1003563;-34
2023/03/09 06:20:16;;;;;;;78.70;30.40;;;;;;;-128.00;-1.00;-1.00;97850;288;1003525;-32
2023/03/09 06:22:44;;;;;;;64.80;26.10;;;;;;;-128.00;-1.00;-1.00;97859;288;1002989;-35
2023/03/09 06:25:10;;;;;;;65.60;27.00;;;;;;;-128.00;-1.00;-1.00;97904;295;1002484;-33
2023/03/09 06:27:36;;;;;;;76.90;27.60;;;;;;;-128.00;-1.00;-1.00;97964;295;1002840;-34
2023/03/09 06:30:03;;;;;;;88.20;34.80;;;;;;;-128.00;-1.00;-1.00;97829;295;1003931;-34
2023/03/09 06:32:32;;;;;;;59.60;26.30;;;;;;;-128.00;-1.00;-1.00;97804;297;1005733;-31
2023/03/09 06:34:58;;;;;;;85.60;28.80;;;;;;;-128.00;-1.00;-1.00;97968;295;1003195;-35
2023/03/09 06:37:23;;;;;;;69.10;28.20;;;;;;;-128.00;-1.00;-1.00;97897;295;1003159;-34
2023/03/09 06:39:49;;;;;;;94.10;36.60;;;;;;;-128.00;-1.00;-1.00;97861;295;1003091;-32
2023/03/09 06:42:15;;;;;;;77.20;31.70;;;;;;;-128.00;-1.00;-1.00;97917;295;1003607;-32
2023/03/09 06:44:42;;;;;;;90.70;29.50;;;;;;;-128.00;-1.00;-1.00;97963;296;1002749;-32
2023/03/09 06:47:09;;;;;;;80.80;26.50;;;;;;;-128.00;-1.00;-1.00;97814;295;1003680;-34
2023/03/09 06:49:35;;;;;;;76.50;25.00;;;;;;;-128.00;-1.00;-1.00;97819;295;1003769;-35
2023/03/09 06:52:01;;;;;;;49.90;20.70;;;;;;;-128.00;-1.00;-1.00;97892;295;1002920;-33
2023/03/09 06:54:26;;;;;;;34.80;15.50;;;;;;;-128.00;-1.00;-1.00;97807;295;1003458;-34
2023/03/09 06:56:53;;;;;;;34.50;12.90;;;;;;;-128.00;-1.00;-1.00;97882;295;1004292;-33
2023/03/09 06:59:19;;;;;;;26.20;13.20;;;;;;;-128.00;-1.00;-1.00;97928;288;1003651;-34
2023/03/09 07:01:45;;;;;;;31.00;13.20;;;;;;;-128.00;-1.00;-1.00;97976;295;1002946;-32
2023/03/09 07:04:11;;;;;;;21.80;10.30;;;;;;;-128.00;-1.00;-1.00;97828;295;1004070;-35
2023/03/09 07:06:37;;;;;;;30.50;15.00;;;;;;;-128.00;-1.00;-1.00;97867;295;1003385;-33
2023/03/09 07:09:03;;;;;;;40.60;17.90;;;;;;;-128.00;-1.00;-1.00;97863;285;1002819;-36
2023/03/09 07:11:29;;;;;;;33.40;15.50;;;;;;;-128.00;-1.00;-1.00;97945;295;1003203;-36
2023/03/09 07:13:55;;;;;;;36.00;15.50;;;;;;;-128.00;-1.00;-1.00;98006;295;1002880;-34
2023/03/09 07:16:22;;;;;;;28.80;15.80;;;;;;;-128.00;-1.00;-1.00;97853;295;1004916;-34
2023/03/09 07:18:48;;;;;;;23.70;12.70;;;;;;;-128.00;-1.00;-1.00;97832;296;1003143;-33
2023/03/09 07:21:14;;;;;;;28.00;14.70;;;;;;;-128.00;-1.00;-1.00;97946;295;1003650;-32
2023/03/09 07:23:40;;;;;;;23.80;12.70;;;;;;;-128.00;-1.00;-1.00;97894;295;1002730;-32
2023/03/09 07:26:07;;;;;;;19.90;10.30;;;;;;;-128.00;-1.00;-1.00;97915;295;1004587;-32
2023/03/09 07:28:33;;;;;;;21.90;9.00;;;;;;;-128.00;-1.00;-1.00;97822;295;1004381;-34
2023/03/09 07:31:06;;;;;;;32.60;11.90;;;;;;;-128.00;-1.00;-1.00;97876;295;1003283;-32
2023/03/09 07:33:32;;;;;;;33.40;15.80;;;;;;;-128.00;-1.00;-1.00;97802;295;1003520;-35
2023/03/09 07:35:57;;;;;;;25.00;10.70;;;;;;;-128.00;-1.00;-1.00;97962;295;1003716;-33
2023/03/09 07:38:23;;;;;;;29.00;13.50;;;;;;;-128.00;-1.00;-1.00;97950;295;1003133;-33
2023/03/09 07:40:49;;;;;;;28.40;12.80;;;;;;;-128.00;-1.00;-1.00;97797;295;1003488;-34
2023/03/09 07:43:15;;;;;;;32.50;17.80;;;;;;;-128.00;-1.00;-1.00;97868;295;1002420;-34
2023/03/09 07:45:41;;;;;;;50.30;23.80;;;;;;;-128.00;-1.00;-1.00;97860;284;1003358;-35
2023/03/09 07:48:08;;;;;;;51.40;23.70;;;;;;;-128.00;-1.00;-1.00;97899;295;1002919;-36
2023/03/09 07:50:34;;;;;;;56.80;22.50;;;;;;;-128.00;-1.00;-1.00;97895;295;1003198;-37
2023/03/09 07:53:00;;;;;;;71.10;24.80;;;;;;;-128.00;-1.00;-1.00;97869;295;1002961;-35
2023/03/09 07:55:27;;;;;;;28.60;12.80;;;;;;;-128.00;-1.00;-1.00;97928;295;1002941;-34
2023/03/09 07:57:53;;;;;;;45.00;16.80;;;;;;;-128.00;-1.00;-1.00;97783;295;1003890;-32
2023/03/09 08:00:23;;;;;;;79.70;33.00;;;;;;;-128.00;-1.00;-1.00;97863;295;1003162;-32
2023/03/09 08:02:49;;;;;;;78.50;26.00;;;;;;;-128.00;-1.00;-1.00;98076;295;1002916;-32
2023/03/09 08:05:15;;;;;;;70.70;26.40;;;;;;;-128.00;-1.00;-1.00;97868;295;1002992;-31
2023/03/09 08:07:46;;;;;;;93.70;25.60;;;;;;;-128.00;-1.00;-1.00;97915;295;1003915;-35
2023/03/09 08:10:13;;;;;;;59.50;19.50;;;;;;;-128.00;-1.00;-1.00;97854;295;1003906;-33
2023/03/09 08:12:41;;;;;;;39.30;18.30;;;;;;;-128.00;-1.00;-1.00;97963;284;1002617;-32
2023/03/09 08:15:07;;;;;;;53.90;22.50;;;;;;;-128.00;-1.00;-1.00;97970;295;1003673;-34
2023/03/09 08:17:34;;;;;;;88.00;24.90;;;;;;;-128.00;-1.00;-1.00;97754;295;1003212;-32
2023/03/09 08:20:04;;;;;;;38.00;17.10;;;;;;;-128.00;-1.00;-1.00;97914;295;1003219;-35
2023/03/09 08:22:30;;;;;;;39.50;14.90;;;;;;;-128.00;-1.00;-1.00;97891;285;1003083;-32
2023/03/09 08:24:56;;;;;;;51.40;16.10;;;;;;;-128.00;-1.00;-1.00;97854;295;1003849;-31
2023/03/09 08:27:22;;;;;;;75.10;22.00;;;;;;;-128.00;-1.00;-1.00;97895;288;1003824;-34
2023/03/09 08:29:50;;;;;;;60.60;19.90;;;;;;;-128.00;-1.00;-1.00;97834;295;1002874;-34
2023/03/09 08:32:15;;;;;;;47.90;14.50;;;;;;;-128.00;-1.00;-1.00;97827;295;1004860;-32
2023/03/09 08:34:41;;;;;;;51.20;15.90;;;;;;;-128.00;-1.00;-1.00;97894;295;1003664;-34
2023/03/09 08:37:07;;;;;;;61.60;17.30;;;;;;;-128.00;-1.00;-1.00;97937;295;1003655;-34
2023/03/09 08:39:33;;;;;;;61.60;18.20;;;;;;;-128.00;-1.00;-1.00;97806;295;1002872;-32
2023/03/09 08:41:59;;;;;;;99.40;24.70;;;;;;;-128.00;-1.00;-1.00;97919;295;1003801;-40
2023/03/09 08:44:25;;;;;;;35.90;14.30;;;;;;;-128.00;-1.00;-1.00;97961;295;1003292;-35
2023/03/09 08:46:50;;;;;;;38.40;14.60;;;;;;;-128.00;-1.00;-1.00;97772;295;1003629;-31
2023/03/09 08:49:16;;;;;;;33.70;12.30;;;;;;;-128.00;-1.00;-1.00;97897;295;1004551;-37
2023/03/09 08:51:42;;;;;;;33.80;14.10;;;;;;;-128.00;-1.00;-1.00;97862;295;1003257;-35
2023/03/09 08:54:08;;;;;;;26.10;13.00;;;;;;;-128.00;-1.00;-1.00;97828;295;1003410;-32
2023/03/09 08:56:33;;;;;;;39.40;12.50;;;;;;;-128.00;-1.00;-1.00;97882;285;1003448;-32
2023/03/09 08:58:59;;;;;;;26.20;13.20;;;;;;;-128.00;-1.00;-1.00;97907;295;1004713;-32
2023/03/09 09:01:25;;;;;;;36.80;13.40;;;;;;;-128.00;-1.00;-1.00;97821;295;1003350;-34
2023/03/09 09:03:51;;;;;;;27.30;11.60;;;;;;;-128.00;-1.00;-1.00;97973;295;1004782;-38
2023/03/09 09:06:17;;;;;;;46.00;17.50;;;;;;;-128.00;-1.00;-1.00;97883;295;1004165;-34
2023/03/09 09:08:42;;;;;;;37.60;15.20;;;;;;;-128.00;-1.00;-1.00;97869;295;1003063;-32
2023/03/09 09:11:10;;;;;;;32.90;14.50;;;;;;;-128.00;-1.00;-1.00;97802;295;1003794;-31
2023/03/09 09:13:37;;;;;;;32.00;12.30;;;;;;;-128.00;-1.00;-1.00;97827;295;1003171;-32
2023/03/09 09:16:05;;;;;;;35.50;16.00;;;;;;;-128.00;-1.00;-1.00;97871;295;1003546;-34
2023/03/09 09:18:32;;;;;;;35.40;15.30;;;;;;;-128.00;-1.00;-1.00;97855;295;1004362;-35
2023/03/09 09:21:03;;;;;;;52.50;14.20;;;;;;;-128.00;-1.00;-1.00;97904;296;1003397;-36
2023/03/09 09:23:29;;;;;;;41.30;13.50;;;;;;;-128.00;-1.00;-1.00;97910;295;1003367;-34
2023/03/09 09:25:55;;;;;;;28.30;11.90;;;;;;;-128.00;-1.00;-1.00;97803;295;1003604;-35
2023/03/09 09:28:22;;;;;;;23.60;12.50;;;;;;;-128.00;-1.00;-1.00;97897;295;1003847;-34
2023/03/09 09:30:55;;;;;;;34.90;11.30;;;;;;;-128.00;-1.00;-1.00;97806;288;1003315;-34
2023/03/09 09:33:21;;;;;;;13.40;8.20;;;;;;;-128.00;-1.00;-1.00;97877;295;1005211;-35
2023/03/09 09:36:00;;;;;;;24.70;7.90;;;;;;;-128.00;-1.00;-1.00;97799;295;1003570;-31
2023/03/09 09:38:26;;;;;;;33.90;14.00;;;;;;;-128.00;-1.00;-1.00;97866;295;1002809;-36
2023/03/09 09:40:56;;;;;;;23.10;12.50;;;;;;;-128.00;-1.00;-1.00;97844;295;1004205;-36
2023/03/09 09:43:22;;;;;;;20.60;10.00;;;;;;;-128.00;-1.00;-1.00;97929;295;1003383;-31
2023/03/09 09:45:48;;;;;;;28.70;12.40;;;;;;;-128.00;-1.00;-1.00;97882;295;1002870;-38
2023/03/09 09:48:15;;;;;;;15.90;10.50;;;;;;;-128.00;-1.00;-1.00;97938;288;1003112;-35
2023/03/09 09:51:09;;;;;;;19.00;12.10;;;;;;;-128.00;-1.00;-1.00;97828;295;1003397;-36
2023/03/09 09:54:03;;;;;;;23.80;13.40;;;;;;;-128.00;-1.00;-1.00;97877;295;1003692;-31
2023/03/09 09:56:41;;;;;;;21.60;13.00;;;;;;;-128.00;-1.00;-1.00;97946;295;1003447;-32
2023/03/09 09:59:07;;;;;;;16.20;9.80;;;;;;;-128.00;-1.00;-1.00;97862;285;1003038;-34
2023/03/09 10:01:55;;;;;;;13.90;9.60;;;;;;;-128.00;-1.00;-1.00;97864;295;1002759;-32
2023/03/09 10:04:27;;;;;;;21.70;9.70;;;;;;;-128.00;-1.00;-1.00;97813;295;1003272;-32
2023/03/09 10:07:00;;;;;;;14.40;7.90;;;;;;;-128.00;-1.00;-1.00;97748;295;1003332;-32
2023/03/09 10:09:28;;;;;;;20.70;9.00;;;;;;;-128.00;-1.00;-1.00;97840;295;1003034;-32
2023/03/09 10:12:06;;;;;;;21.30;10.40;;;;;;;-128.00;-1.00;-1.00;97882;295;1003255;-32
2023/03/09 10:14:34;;;;;;;11.70;7.90;;;;;;;-128.00;-1.00;-1.00;91079;295;3496624;-32
2023/03/09 10:17:09;;;;;;;8.80;6.40;;;;;;;-128.00;-1.00;-1.00;97886;295;1004894;-33
2023/03/09 10:19:40;;;;;;;15.10;7.40;;;;;;;-128.00;-1.00;-1.00;97882;295;1003192;-31
2023/03/09 10:22:27;;;;;;;14.20;7.40;;;;;;;-128.00;-1.00;-1.00;98010;295;1004259;-32
2023/03/09 10:24:54;;;;;;;15.30;7.50;;;;;;;-128.00;-1.00;-1.00;97548;295;1003225;-32
2023/03/09 10:27:49;;;;;;;15.60;7.40;;;;;;;-128.00;-1.00;-1.00;97906;284;1003703;-36
2023/03/09 10:30:29;;;;;;;;;;;;;;;-128.00;-1.00;-1.00;97988;295;1003723;-34
2023/03/09 10:33:17;;;;;;;8.30;5.20;;;;;;;-128.00;-1.00;-1.00;97888;295;1003731;-32
2023/03/09 10:35:59;;;;;;;12.60;5.60;;;;;;;-128.00;-1.00;-1.00;97914;295;1003309;-32
2023/03/09 10:38:25;;;;;;;22.50;13.10;;;;;;;-128.00;-1.00;-1.00;97858;295;1003285;-33
2023/03/09 10:40:55;;;;;;;29.10;15.30;;;;;;;-128.00;-1.00;-1.00;97895;284;1003006;-32
2023/03/09 10:43:29;;;;;;;24.40;15.30;;;;;;;-128.00;-1.00;-1.00;98062;284;1003937;-35
2023/03/09 10:46:13;;;;;;;29.30;19.10;;;;;;;-128.00;-1.00;-1.00;97801;295;1002545;-34
2023/03/09 10:48:40;;;;;;;22.30;13.10;;;;;;;-128.00;-1.00;-1.00;97828;285;1003970;-34
2023/03/09 10:51:09;;;;;;;18.70;11.80;;;;;;;-128.00;-1.00;-1.00;97979;295;1004832;-40
2023/03/09 10:53:41;;;;;;;9.90;7.20;;;;;;;-128.00;-1.00;-1.00;97986;295;1004013;-34
2023/03/09 10:56:22;;;;;;;14.10;9.80;;;;;;;-128.00;-1.00;-1.00;97912;295;1002926;-32
2023/03/09 10:59:12;;;;;;;15.00;10.20;;;;;;;-128.00;-1.00;-1.00;97811;295;1003699;-32
2023/03/09 11:01:39;;;;;;;21.80;10.30;;;;;;;-128.00;-1.00;-1.00;97824;285;1004230;-35
2023/03/09 11:46:14;;;;;;;8.90;5.10;;;;;;;-102.04;19.20;19484.75;98247;296;1544188;-35
2023/03/09 11:48:46;;;;;;;13.70;5.30;;;;;;;-128.00;-1.00;-1.00;95293;296;3568546;-32
2023/03/09 11:51:18;;;;;;;6.80;3.90;;;;;;;-128.00;-1.00;-1.00;90525;288;3092359;-32
2023/03/09 11:53:59;;;;;;;8.50;5.80;;;;;;;-128.00;-1.00;-1.00;23067;288;7504301;-33
2023/03/09 11:56:32;;;;;;;8.90;5.50;;;;;;;-128.00;-1.00;-1.00;18462;295;7506833;-33
2023/03/09 11:59:16;;;;;;;10.20;5.10;;;;;;;-128.00;-1.00;-1.00;18489;295;7504938;-34
2023/03/09 12:01:57;;;;;;;10.10;6.30;;;;;;;-128.00;-1.00;-1.00;18517;306;7505971;-33
2023/03/09 12:04:23;;;;;;;10.70;5.50;;;;;;;-128.00;-1.00;-1.00;18483;295;7505224;-37
2023/03/09 12:07:06;;;;;;;7.30;4.50;;;;;;;-128.00;-1.00;-1.00;18487;287;7504862;-33
2023/03/09 12:09:53;;;;;;;8.60;6.20;;;;;;;-128.00;-1.00;-1.00;18477;295;7504649;-38
2023/03/09 12:12:26;;;;;;;7.10;5.80;;;;;;;-128.00;-1.00;-1.00;18496;336;7505275;-36
2023/03/09 12:14:55;;;;;;;7.00;4.90;;;;;;;-128.00;-1.00;-1.00;18494;347;7504835;-33
2023/03/09 12:17:23;;;;;;;9.00;6.10;;;;;;;-128.00;-1.00;-1.00;18477;295;7505968;-33
2023/03/09 12:19:50;;;;;;;7.50;6.30;;;;;;;-128.00;-1.00;-1.00;18501;287;7504685;-36
2023/03/09 12:22:18;;;;;;;15.90;11.30;;;;;;;-128.00;-1.00;-1.00;18512;295;7504423;-34
2023/03/09 12:24:45;;;;;;;11.90;6.10;;;;;;;-128.00;-1.00;-1.00;18470;295;7505955;-34
2023/03/09 12:27:15;;;;;;;12.10;8.50;;;;;;;-128.00;-1.00;-1.00;18494;295;7504767;-33
2023/03/09 12:29:47;;;;;;;14.70;7.80;;;;;;;-128.00;-1.00;-1.00;18491;295;7506427;-33
2023/03/09 12:32:32;;;;;;;;;;;;;;;-128.00;-1.00;-1.00;18470;295;7504514;-36
2023/03/09 12:35:00;;;;;;;13.00;8.60;;;;;;;-128.00;-1.00;-1.00;18480;295;7505033;-33
2023/03/09 12:37:56;;;;;;;8.60;7.60;;;;;;;-128.00;-1.00;-1.00;18485;295;7504294;-36
2023/03/09 12:40:35;;;;;;;11.00;8.90;;;;;;;-128.00;-1.00;-1.00;18509;287;7505073;-34
2023/03/09 12:43:33;;;;;;;11.10;7.70;;;;;;;-128.00;-1.00;-1.00;18474;295;7504498;-34
2023/03/09 12:46:21;;;;;;;11.50;8.80;;;;;;;-128.00;-1.00;-1.00;18473;295;7506457;-36